createdAt,value
2022-08-25T00:01:40.265Z,18.34
2022-08-25T00:04:10.768Z,18.26
2022-08-25T00:06:38.882Z,18.07
2022-08-25T00:09:07.108Z,18.07
2022-08-25T00:11:35.657Z,18.13
2022-08-25T00:14:06.904Z,17.92
2022-08-25T00:16:35.981Z,17.94
2022-08-25T00:19:06.411Z,17.97
2022-08-25T00:21:33.957Z,17.92
2022-08-25T00:24:03.085Z,17.74
2022-08-25T00:26:31.304Z,17.69
2022-08-25T00:29:01.694Z,17.68
2022-08-25T00:31:37.707Z,17.75
2022-08-25T00:34:10.181Z,17.77
2022-08-25T00:36:38.150Z,17.75
2022-08-25T00:39:06.533Z,17.76
2022-08-25T00:41:35.176Z,17.70
2022-08-25T00:44:04.910Z,17.62
2022-08-25T00:46:38.546Z,17.49
2022-08-25T00:49:20.872Z,17.56
2022-08-25T00:51:55.310Z,17.45
2022-08-25T00:54:27.157Z,17.38
2022-08-25T00:56:55.093Z,17.30
2022-08-25T00:59:23.689Z,17.38
2022-08-25T01:01:52.179Z,17.38
2022-08-25T01:04:22.105Z,17.45
2022-08-25T01:06:50.333Z,17.46
2022-08-25T01:09:18.739Z,17.58
2022-08-25T01:11:47.535Z,17.43
2022-08-25T01:14:18.794Z,17.48
2022-08-25T01:16:46.704Z,17.59
2022-08-25T01:19:19.066Z,17.63
2022-08-25T01:21:49.902Z,17.61
2022-08-25T01:24:23.682Z,17.62
2022-08-25T01:26:51.221Z,17.70
2022-08-25T01:29:26.200Z,17.67
2022-08-25T01:31:57.653Z,17.75
2022-08-25T01:34:26.466Z,17.71
2022-08-25T01:36:57.237Z,17.74
2022-08-25T01:39:25.641Z,17.72
2022-08-25T01:42:09.917Z,17.63
2022-08-25T01:44:40.595Z,17.58
2022-08-25T01:47:08.516Z,17.48
2022-08-25T01:49:36.445Z,17.43
2022-08-25T01:52:11.905Z,17.39
2022-08-25T01:54:39.444Z,17.35
2022-08-25T01:57:07.473Z,17.21
2022-08-25T01:59:35.101Z,17.09
2022-08-25T02:02:03.031Z,17.09
2022-08-25T02:04:32.675Z,16.98
2022-08-25T02:07:02.265Z,16.77
2022-08-25T02:09:31.501Z,16.79
2022-08-25T02:11:59.137Z,16.76
2022-08-25T02:14:28.479Z,16.69
2022-08-25T02:16:57.277Z,16.61
2022-08-25T02:19:25.861Z,16.47
2022-08-25T02:21:53.438Z,16.47
2022-08-25T02:24:21.185Z,16.40
2022-08-25T02:26:50.409Z,16.44
2022-08-25T02:29:18.208Z,16.44
2022-08-25T02:31:45.870Z,16.44
2022-08-25T02:34:15.101Z,16.36
2022-08-25T02:36:43.271Z,16.25
2022-08-25T02:39:11.698Z,16.38
2022-08-25T02:41:39.831Z,16.31
2022-08-25T02:44:09.482Z,16.21
2022-08-25T02:46:38.075Z,16.21
2022-08-25T02:49:06.192Z,16.18
2022-08-25T02:51:34.603Z,16.11
2022-08-25T02:54:04.121Z,16.01
2022-08-25T02:56:32.742Z,15.88
2022-08-25T02:59:01.822Z,15.69
2022-08-25T03:01:32.049Z,15.65
2022-08-25T03:03:59.803Z,15.61
2022-08-25T03:06:27.950Z,15.63
2022-08-25T03:08:55.771Z,15.71
2022-08-25T03:11:24.911Z,15.79
2022-08-25T03:13:52.441Z,15.67
2022-08-25T03:16:20.661Z,15.75
2022-08-25T03:18:50.213Z,15.71
2022-08-25T03:21:18.761Z,15.76
2022-08-25T03:23:46.600Z,15.73
2022-08-25T03:26:31.903Z,15.81
2022-08-25T03:28:59.667Z,15.74
2022-08-25T03:31:28.081Z,15.78
2022-08-25T03:33:57.156Z,15.79
2022-08-25T03:36:25.066Z,15.70
2022-08-25T03:38:52.714Z,15.67
2022-08-25T03:41:23.637Z,15.62
2022-08-25T03:43:53.299Z,15.67
2022-08-25T03:46:23.072Z,15.63
2022-08-25T03:48:50.703Z,15.53
2022-08-25T03:51:24.106Z,15.63
2022-08-25T03:53:53.123Z,15.67
2022-08-25T03:56:21.141Z,15.65
2022-08-25T03:58:49.425Z,15.73
2022-08-25T04:01:18.225Z,15.85
2022-08-25T04:03:46.512Z,15.97
2022-08-25T04:06:15.099Z,15.95
2022-08-25T04:08:44.288Z,15.88
2022-08-25T04:11:14.113Z,15.90
2022-08-25T04:13:42.845Z,15.85
2022-08-25T04:16:14.817Z,15.95
2022-08-25T04:18:42.919Z,16.02
2022-08-25T04:21:11.899Z,16.02
2022-08-25T04:23:41.478Z,16.05
2022-08-25T04:26:11.677Z,16.11
2022-08-25T04:28:39.350Z,16.11
2022-08-25T04:31:09.389Z,16.07
2022-08-25T04:33:38.468Z,16.10
2022-08-25T04:36:12.088Z,16.14
2022-08-25T04:38:40.820Z,16.16
2022-08-25T04:41:09.290Z,16.07
2022-08-25T04:43:39.682Z,16.10
2022-08-25T04:46:08.559Z,15.97
2022-08-25T04:48:36.229Z,15.90
2022-08-25T04:51:06.045Z,15.80
2022-08-25T04:53:34.155Z,15.73
2022-08-25T04:56:03.922Z,15.59
2022-08-25T04:58:31.735Z,15.81
2022-08-25T05:01:04.528Z,15.92
2022-08-25T05:03:32.474Z,15.97
2022-08-25T05:06:00.270Z,15.92
2022-08-25T05:08:28.169Z,16.04
2022-08-25T05:10:56.678Z,16.09
2022-08-25T05:13:24.542Z,16.11
2022-08-25T05:15:55.932Z,16.26
2022-08-25T05:18:28.982Z,16.42
2022-08-25T05:20:57.405Z,16.52
2022-08-25T05:23:26.170Z,16.63
2022-08-25T05:25:53.958Z,16.82
2022-08-25T05:28:22.462Z,16.99
2022-08-25T05:30:50.158Z,17.15
2022-08-25T05:33:18.354Z,17.39
2022-08-25T05:35:47.350Z,17.73
2022-08-25T05:38:15.406Z,17.98
2022-08-25T05:40:43.282Z,18.23
2022-08-25T05:43:10.817Z,18.53
2022-08-25T05:45:39.165Z,18.71
2022-08-25T05:48:06.866Z,18.90
2022-08-25T05:50:34.470Z,19.16
2022-08-25T05:53:03.633Z,19.36
2022-08-25T05:55:31.281Z,19.50
2022-08-25T05:57:59.175Z,19.70
2022-08-25T06:00:26.982Z,19.83
2022-08-25T06:02:55.346Z,20.04
2022-08-25T06:05:23.960Z,20.24
2022-08-25T06:07:52.999Z,20.42
2022-08-25T06:10:22.317Z,20.50
2022-08-25T06:12:50.182Z,20.64
2022-08-25T06:15:19.356Z,20.81
2022-08-25T06:17:48.038Z,20.94
2022-08-25T06:20:17.134Z,20.91
2022-08-25T06:22:44.921Z,20.98
2022-08-25T06:25:14.206Z,21.01
2022-08-25T06:27:43.413Z,21.12
2022-08-25T06:30:14.923Z,21.23
2022-08-25T06:32:44.927Z,21.51
2022-08-25T06:35:14.649Z,21.65
2022-08-25T06:37:42.450Z,22.00
2022-08-25T06:40:11.242Z,22.08
2022-08-25T06:42:39.021Z,22.41
2022-08-25T06:45:10.180Z,23.01
2022-08-25T06:47:37.742Z,23.68
2022-08-25T06:50:08.974Z,24.08
2022-08-25T06:52:39.432Z,25.10
2022-08-25T06:55:07.669Z,25.45
2022-08-25T06:57:35.916Z,26.24
2022-08-25T07:00:05.198Z,26.56
2022-08-25T07:02:38.352Z,27.15
2022-08-25T07:05:08.251Z,28.13
2022-08-25T07:07:52.215Z,28.42
2022-08-25T07:10:19.924Z,28.38
2022-08-25T07:12:47.541Z,28.35
2022-08-25T07:15:20.511Z,28.56
2022-08-25T07:17:51.484Z,28.68
2022-08-25T07:20:19.814Z,29.07
2022-08-25T07:22:48.590Z,28.95
2022-08-25T07:25:17.822Z,28.93
2022-08-25T07:27:45.909Z,29.32
2022-08-25T07:30:14.078Z,29.49
2022-08-25T07:32:42.056Z,29.61
2022-08-25T07:35:19.053Z,29.30
2022-08-25T07:37:51.404Z,28.38
2022-08-25T07:40:21.297Z,28.68
2022-08-25T07:42:50.579Z,28.94
2022-08-25T07:45:21.103Z,28.31
2022-08-25T07:47:51.575Z,28.71
2022-08-25T07:50:21.811Z,29.14
2022-08-25T07:52:52.201Z,28.79
2022-08-25T07:55:22.781Z,28.52
2022-08-25T07:57:55.412Z,29.55
2022-08-25T08:00:27.405Z,28.70
2022-08-25T08:02:55.026Z,28.98
2022-08-25T08:05:24.913Z,29.33
2022-08-25T08:07:52.451Z,29.57
2022-08-25T08:13:08.208Z,29.67
2022-08-25T08:15:35.832Z,29.49
2022-08-25T08:18:05.171Z,29.15
2022-08-25T08:20:42.472Z,29.56
2022-08-25T08:23:11.104Z,29.56
2022-08-25T08:25:38.717Z,30.17
2022-08-25T08:28:06.349Z,30.34
2022-08-25T08:30:36.359Z,30.21
2022-08-25T08:33:12.823Z,30.48
2022-08-25T08:35:42.549Z,30.04
2022-08-25T08:38:17.228Z,30.14
2022-08-25T08:41:13.796Z,30.51
2022-08-25T08:43:43.136Z,30.30
2022-08-25T08:46:12.662Z,29.64
2022-08-25T08:48:52.253Z,29.72
2022-08-25T08:51:24.558Z,29.82
2022-08-25T08:53:57.122Z,29.85
2022-08-25T08:56:30.787Z,29.80
2022-08-25T08:59:05.701Z,30.08
2022-08-25T09:01:36.866Z,29.80
2022-08-25T09:04:10.284Z,29.42
2022-08-25T09:06:44.546Z,29.75
2022-08-25T09:09:14.244Z,29.88
2022-08-25T09:11:52.526Z,30.09
2022-08-25T09:14:31.273Z,30.24
2022-08-25T09:17:02.969Z,29.93
2022-08-25T09:20:18.900Z,29.71
2022-08-25T09:22:53.797Z,30.22
2022-08-25T09:25:48.676Z,29.84
2022-08-25T09:28:20.549Z,30.29
2022-08-25T09:30:54.502Z,30.36
2022-08-25T09:33:24.197Z,30.26
2022-08-25T09:35:53.686Z,30.22
2022-08-25T09:38:25.669Z,29.90
2022-08-25T09:40:56.297Z,29.93
2022-08-25T09:43:31.934Z,29.72
2022-08-25T09:46:02.364Z,29.94
2022-08-25T09:48:39.809Z,30.13
2022-08-25T09:51:19.096Z,29.98
2022-08-25T09:53:52.665Z,30.41
2022-08-25T09:56:21.254Z,30.60
2022-08-25T09:58:49.573Z,31.01
2022-08-25T10:01:19.289Z,30.73
2022-08-25T10:04:01.525Z,30.62
2022-08-25T10:06:32.561Z,30.88
2022-08-25T10:09:05.847Z,30.96
2022-08-25T10:11:38.097Z,31.42
2022-08-25T10:14:09.462Z,31.43
2022-08-25T10:16:37.545Z,31.54
2022-08-25T10:19:09.082Z,31.62
2022-08-25T10:21:38.023Z,30.81
2022-08-25T10:24:07.989Z,30.62
2022-08-25T10:26:48.785Z,30.83
2022-08-25T10:29:29.695Z,31.13
2022-08-25T10:32:10.226Z,31.21
2022-08-25T10:34:45.752Z,31.65
2022-08-25T10:37:27.655Z,31.21
2022-08-25T10:40:11.586Z,30.62
2022-08-25T10:42:42.840Z,31.08
2022-08-25T10:45:40.265Z,31.13
2022-08-25T10:48:27.340Z,31.69
2022-08-25T10:50:57.730Z,32.01
2022-08-25T10:53:36.615Z,31.60
2022-08-25T10:56:09.437Z,31.92
2022-08-25T10:58:51.321Z,31.82
2022-08-25T11:01:34.708Z,32.09
2022-08-25T11:04:09.935Z,31.82
2022-08-25T11:06:43.794Z,31.94
2022-08-25T11:09:15.188Z,31.81
2022-08-25T11:16:16.583Z,31.47
2022-08-25T11:18:49.254Z,32.21
2022-08-25T11:21:22.056Z,32.10
2022-08-25T11:23:55.294Z,31.99
2022-08-25T11:26:31.912Z,32.48
2022-08-25T11:29:04.574Z,33.14
2022-08-25T11:31:39.021Z,33.34
2022-08-25T11:34:09.762Z,32.81
2022-08-25T11:36:40.665Z,33.01
2022-08-25T11:39:16.300Z,33.41
2022-08-25T11:41:54.052Z,33.47
2022-08-25T11:44:39.017Z,32.74
2022-08-25T11:47:44.715Z,32.76
2022-08-25T11:50:30.121Z,31.85
2022-08-25T11:52:59.969Z,32.24
2022-08-25T11:55:33.926Z,31.88
2022-08-25T11:58:27.962Z,31.45
2022-08-25T12:00:59.735Z,31.54
2022-08-25T12:03:54.156Z,31.23
2022-08-25T12:06:29.357Z,30.59
2022-08-25T12:09:19.540Z,31.37
2022-08-25T12:11:54.501Z,31.76
2022-08-25T12:14:47.914Z,31.58
2022-08-25T12:17:22.258Z,31.82
2022-08-25T12:19:58.068Z,31.73
2022-08-25T12:22:56.218Z,31.31
2022-08-25T12:25:36.345Z,31.16
2022-08-25T12:28:10.230Z,31.80
2022-08-25T12:30:45.619Z,32.31
2022-08-25T12:33:19.175Z,32.92
2022-08-25T12:35:56.864Z,33.01
2022-08-25T12:38:31.977Z,32.56
2022-08-25T12:41:03.497Z,32.65
2022-08-25T12:43:33.468Z,33.14
2022-08-25T12:46:34.213Z,33.36
2022-08-25T12:49:03.076Z,33.38
2022-08-25T12:51:54.117Z,33.30
2022-08-25T12:54:26.464Z,33.73
2022-08-25T12:56:58.478Z,33.39
2022-08-25T12:59:34.219Z,33.28
2022-08-25T13:02:33.107Z,32.68
2022-08-25T13:05:06.024Z,32.96
2022-08-25T13:07:55.325Z,32.50
2022-08-25T13:10:46.806Z,31.64
2022-08-25T13:13:20.793Z,32.06
2022-08-25T13:15:59.887Z,32.90
2022-08-25T13:18:29.739Z,32.01
2022-08-25T13:21:04.833Z,31.73
2022-08-25T13:23:36.269Z,32.08
2022-08-25T13:26:08.863Z,32.92
2022-08-25T13:28:40.867Z,32.97
2022-08-25T13:31:15.553Z,32.53
2022-08-25T13:33:56.664Z,32.95
2022-08-25T13:36:52.036Z,33.61
2022-08-25T13:39:45.576Z,34.31
2022-08-25T13:42:18.478Z,34.95
2022-08-25T13:44:52.026Z,35.25
2022-08-25T13:47:43.338Z,35.72
2022-08-25T13:50:23.465Z,34.51
2022-08-25T13:52:56.289Z,34.09
2022-08-25T13:55:27.758Z,33.86
2022-08-25T13:57:58.649Z,34.01
2022-08-25T14:00:32.129Z,34.46
2022-08-25T14:03:12.639Z,34.09
2022-08-25T14:05:44.285Z,33.71
2022-08-25T14:08:31.997Z,33.61
2022-08-25T14:11:14.698Z,33.19
2022-08-25T14:13:44.119Z,32.73
2022-08-25T14:16:15.373Z,32.14
2022-08-25T14:18:52.389Z,32.01
2022-08-25T14:21:30.707Z,31.56
2022-08-25T14:23:59.145Z,31.18
2022-08-25T14:26:36.698Z,31.13
2022-08-25T14:29:23.654Z,31.02
2022-08-25T14:31:57.567Z,30.74
2022-08-25T14:34:29.878Z,30.76
2022-08-25T14:36:59.899Z,30.84
2022-08-25T14:39:28.890Z,30.44
2022-08-25T14:42:06.970Z,30.27
2022-08-25T14:44:36.198Z,30.54
2022-08-25T14:47:03.945Z,30.65
2022-08-25T14:49:37.599Z,31.12
2022-08-25T14:52:09.669Z,31.60
2022-08-25T14:54:37.861Z,31.58
2022-08-25T14:57:10.855Z,31.36
2022-08-25T14:59:40.653Z,31.29
2022-08-25T15:02:13.002Z,31.17
2022-08-25T15:04:48.877Z,30.97
2022-08-25T15:07:30.897Z,31.14
2022-08-25T15:09:59.535Z,31.25
2022-08-25T15:12:46.444Z,31.47
2022-08-25T15:15:14.757Z,31.46
2022-08-25T15:17:44.504Z,30.98
2022-08-25T15:20:12.849Z,30.70
2022-08-25T15:22:43.661Z,30.63
2022-08-25T15:25:11.473Z,30.39
2022-08-25T15:27:40.740Z,30.31
2022-08-25T15:30:10.697Z,30.45
2022-08-25T15:32:40.889Z,30.39
2022-08-25T15:35:16.213Z,30.30
2022-08-25T15:37:44.466Z,31.05
2022-08-25T15:40:13.757Z,31.85
2022-08-25T15:42:45.931Z,32.52
2022-08-25T15:45:14.437Z,33.02
2022-08-25T15:47:42.380Z,33.34
2022-08-25T15:50:15.100Z,33.60
2022-08-25T15:52:47.614Z,33.00
2022-08-25T15:55:19.997Z,33.22
2022-08-25T15:57:56.401Z,33.38
2022-08-25T16:00:27.109Z,33.73
2022-08-25T16:03:01.015Z,33.49
2022-08-25T16:05:32.691Z,33.34
2022-08-25T16:08:04.909Z,33.42
2022-08-25T16:10:36.466Z,33.11
2022-08-25T16:13:07.307Z,32.52
2022-08-25T16:15:40.487Z,32.66
2022-08-25T16:18:10.905Z,32.16
2022-08-25T16:20:38.595Z,31.59
2022-08-25T16:23:07.181Z,31.15
2022-08-25T16:25:40.361Z,31.33
2022-08-25T16:28:13.974Z,31.04
2022-08-25T16:30:52.798Z,30.95
2022-08-25T16:33:21.489Z,30.60
2022-08-25T16:35:50.621Z,30.63
2022-08-25T16:38:20.605Z,30.57
2022-08-25T16:40:48.427Z,30.57
2022-08-25T16:43:17.619Z,30.68
2022-08-25T16:45:48.629Z,30.55
2022-08-25T16:48:19.042Z,30.40
2022-08-25T16:50:47.588Z,30.41
2022-08-25T16:53:35.133Z,30.47
2022-08-25T16:56:03.179Z,30.31
2022-08-25T16:58:33.163Z,30.54
2022-08-25T17:01:06.213Z,30.57
2022-08-25T17:03:37.178Z,30.54
2022-08-25T17:06:04.962Z,30.55
2022-08-25T17:08:33.186Z,30.20
2022-08-25T17:11:07.699Z,30.07
2022-08-25T17:13:36.998Z,29.91
2022-08-25T17:16:08.960Z,29.66
2022-08-25T17:18:37.490Z,29.28
2022-08-25T17:21:06.971Z,29.35
2022-08-25T17:23:35.884Z,28.93
2022-08-25T17:26:04.441Z,28.80
2022-08-25T17:28:34.509Z,28.79
2022-08-25T17:31:14.202Z,28.83
2022-08-25T17:33:42.343Z,28.90
2022-08-25T17:36:18.204Z,28.82
2022-08-25T17:38:45.853Z,28.88
2022-08-25T17:41:14.536Z,28.90
2022-08-25T17:43:43.344Z,28.90
2022-08-25T17:46:14.691Z,28.78
2022-08-25T17:48:46.657Z,28.75
2022-08-25T17:51:15.830Z,28.62
2022-08-25T17:53:44.374Z,28.62
2022-08-25T17:56:14.597Z,28.67
2022-08-25T17:58:43.053Z,28.59
2022-08-25T18:01:18.178Z,28.48
2022-08-25T18:03:46.550Z,28.31
2022-08-25T18:06:15.207Z,28.15
2022-08-25T18:08:52.194Z,27.98
2022-08-25T18:11:24.385Z,27.76
2022-08-25T18:13:53.594Z,27.54
2022-08-25T18:16:23.775Z,27.08
2022-08-25T18:18:53.166Z,26.87
2022-08-25T18:21:22.383Z,26.73
2022-08-25T18:23:50.395Z,26.37
2022-08-25T18:26:24.668Z,26.15
2022-08-25T18:28:53.626Z,25.82
2022-08-25T18:31:22.719Z,25.68
2022-08-25T18:33:52.260Z,25.52
2022-08-25T18:36:20.297Z,25.28
2022-08-25T18:39:06.592Z,24.99
2022-08-25T18:41:36.503Z,24.49
2022-08-25T18:44:04.409Z,24.45
2022-08-25T18:46:33.344Z,24.23
2022-08-25T18:49:01.443Z,24.03
2022-08-25T18:51:29.117Z,23.96
2022-08-25T18:54:01.382Z,23.89
2022-08-25T18:56:29.289Z,23.75
2022-08-25T18:58:56.990Z,23.70
2022-08-25T19:01:24.768Z,23.57
2022-08-25T19:03:53.837Z,23.44
2022-08-25T19:06:21.985Z,23.33
2022-08-25T19:08:49.597Z,23.25
2022-08-25T19:11:22.041Z,23.15
2022-08-25T19:13:50.406Z,23.03
2022-08-25T19:16:20.612Z,22.93
2022-08-25T19:18:52.126Z,22.89
2022-08-25T19:21:23.670Z,22.80
2022-08-25T19:23:51.366Z,22.72
2022-08-25T19:26:20.262Z,22.60
2022-08-25T19:28:49.834Z,22.57
2022-08-25T19:31:18.352Z,22.52
2022-08-25T19:33:46.289Z,22.43
2022-08-25T19:36:14.574Z,22.34
2022-08-25T19:38:44.645Z,22.27
2022-08-25T19:41:14.824Z,22.27
2022-08-25T19:43:56.646Z,22.12
2022-08-25T19:46:25.805Z,22.20
2022-08-25T19:49:06.946Z,22.07
2022-08-25T19:54:04.913Z,21.96
2022-08-25T19:56:34.981Z,21.89
2022-08-25T19:59:04.778Z,21.91
2022-08-25T20:01:33.014Z,21.79
2022-08-25T20:04:03.373Z,21.65
2022-08-25T20:06:32.048Z,21.47
2022-08-25T20:09:00.593Z,21.47
2022-08-25T20:11:32.255Z,21.29
2022-08-25T20:14:03.828Z,21.19
2022-08-25T20:16:31.848Z,21.23
2022-08-25T20:18:59.962Z,21.31
2022-08-25T20:21:28.592Z,21.35
2022-08-25T20:24:16.351Z,21.35
2022-08-25T20:26:45.294Z,21.10
2022-08-25T20:29:13.799Z,20.81
2022-08-25T20:31:43.826Z,20.74
2022-08-25T20:34:12.212Z,20.73
2022-08-25T20:36:50.254Z,20.82
2022-08-25T20:39:20.110Z,20.93
2022-08-25T20:41:49.219Z,20.91
2022-08-25T20:44:17.685Z,20.96
2022-08-25T20:46:45.217Z,20.93
2022-08-25T20:49:13.541Z,20.86
2022-08-25T20:51:41.242Z,20.79
2022-08-25T20:54:12.498Z,20.74
2022-08-25T20:56:40.277Z,20.70
2022-08-25T20:59:10.494Z,20.64
2022-08-25T21:01:40.202Z,20.66
2022-08-25T21:04:09.270Z,20.59
2022-08-25T21:06:37.297Z,20.60
2022-08-25T21:09:06.168Z,20.53
2022-08-25T21:11:41.218Z,20.49
2022-08-25T21:14:15.404Z,20.44
2022-08-25T21:16:46.485Z,20.38
2022-08-25T21:19:16.089Z,20.38
2022-08-25T21:21:43.650Z,20.37
2022-08-25T21:24:11.646Z,20.28
2022-08-25T21:26:48.691Z,20.35
2022-08-25T21:29:19.153Z,20.38
2022-08-25T21:31:47.166Z,20.34
2022-08-25T21:34:18.030Z,20.30
2022-08-25T21:36:46.500Z,20.26
2022-08-25T21:39:14.844Z,20.23
2022-08-25T21:41:44.573Z,20.18
2022-08-25T21:44:13.850Z,20.13
2022-08-25T21:46:53.844Z,20.02
2022-08-25T21:49:23.227Z,19.94
2022-08-25T21:52:00.084Z,19.69
2022-08-25T21:54:29.401Z,19.74
2022-08-25T21:57:00.688Z,19.68
2022-08-25T21:59:30.197Z,19.69
2022-08-25T22:02:00.820Z,19.76
2022-08-25T22:04:29.050Z,19.79
2022-08-25T22:06:58.389Z,19.79
2022-08-25T22:09:27.498Z,19.79
2022-08-25T22:11:56.066Z,19.81
2022-08-25T22:14:24.479Z,19.78
2022-08-25T22:16:54.141Z,19.71
2022-08-25T22:19:23.872Z,19.63
2022-08-25T22:21:53.568Z,19.58
2022-08-25T22:24:21.433Z,19.56
2022-08-25T22:26:49.438Z,19.45
2022-08-25T22:29:24.923Z,19.49
2022-08-25T22:31:53.378Z,19.51
2022-08-25T22:34:30.754Z,19.53
2022-08-25T22:37:01.600Z,19.58
2022-08-25T22:39:30.137Z,19.54
2022-08-25T22:41:57.643Z,19.60
2022-08-25T22:44:26.383Z,19.55
2022-08-25T22:46:54.369Z,19.52
2022-08-25T22:49:22.196Z,19.51
2022-08-25T22:51:49.870Z,19.48
2022-08-25T22:54:19.761Z,19.47
2022-08-25T22:56:47.289Z,19.44
2022-08-25T22:59:15.462Z,19.36
2022-08-25T23:01:45.158Z,19.35
2022-08-25T23:04:14.462Z,19.38
2022-08-25T23:06:42.445Z,19.32
2022-08-25T23:09:10.708Z,19.33
2022-08-25T23:11:40.486Z,19.28
2022-08-25T23:14:10.907Z,19.28
2022-08-25T23:16:38.858Z,19.27
2022-08-25T23:19:06.445Z,19.28
2022-08-25T23:21:52.585Z,19.29
2022-08-25T23:24:29.291Z,19.23
2022-08-25T23:27:00.620Z,19.04
2022-08-25T23:29:28.675Z,18.97
2022-08-25T23:31:56.587Z,18.95
2022-08-25T23:34:24.587Z,18.57
2022-08-25T23:36:52.691Z,18.74
2022-08-25T23:39:21.866Z,18.87
2022-08-25T23:41:49.884Z,18.95
2022-08-25T23:44:19.019Z,19.01
2022-08-25T23:46:47.153Z,18.95
2022-08-25T23:49:18.371Z,18.86
2022-08-25T23:51:47.356Z,18.84
2022-08-25T23:54:16.241Z,18.89
2022-08-25T23:56:52.335Z,18.86
2022-08-25T23:59:23.953Z,18.92
